Gerald R. Ford International Airport Grand Rapids US
ICAO: KGRR
IATA: GRR
Category: Medium
Scheduled Services: Yes

Elevation: 794 ft
TransAlt. 18000 ft.

Airport Communications:
GRAND RAPIDS APP/DEP:124.6
ATIS:127.1
CLNC DEL:119.3
CTAF:135.65
GND:121.8
LANSING RDO:115.95
GRAND RAPIDS TWR:135.65
UNICOM:122.95

KGRR Zoom In..

If you have problems with the map follow the link
https://www.worldairports.se/pages/airport.php?
ICAO=KGRR

Runways:

(A) RW 08L length 5000 ft width 100 ft
---- / hdg 85

(B) RW 08R length 10000 ft width 150 ft
ILS 108.30 / hdg 85

(C) RW 17 length 8501 ft width 150 ft
---- / hdg 175

(D) RW 26L length 10000 ft width 150 ft
ILS 109.70 / hdg 265

(E) RW 26R length 5000 ft width 100 ft
---- / hdg 265

(F) RW 35 length 8501 ft width 150 ft
ILS 111.90 / hdg 355

Location; KGRR
Day. 18 / Time. 12.08 Zulu
* Altimeter: 29.86
* Temperature: -02° c. -28.4°f.
* Wind from: 120° Speed 11 kn.
Dewpoint: -04° c.
Visibility: 1 m.
Clouds: Few 700 ft.
Clouds: Broken 2300 ft.
Clouds: Overcast 2900 ft.
Conditions: Light Snow.Conditions: Mist.

KGRR 181208Z 12011KT 1 1/4SM -SN BR FEW007 BKN023 OVC029 M02/M04 A2986 RMK AO2 FZRAE05PLE05 P0001 I1000 T10221044 $


Wind From 120°
Speed 11 kn.

 
 
jpsmedia worldairports.se 2020   terms of use